Airfield :
LOGIN :

Register | Disclaimer

   EN    FR    IT 

 










Legend :    VFR   Marginal VFR   IFR   Intensive IFR   Very Intensive IFR
Visi :
Ceiling :
>= 8 km
>= 3000ft
5 to 8 km
1000 to 3000 ft
1500m to 5 km
500 to 1000 ft
800 to 1500m
200 to 500 ft
< 800m
< 200 ft
Symbols :   Thunderstorms  Fog  Heavy snow  Heavy precipitations  Wind > 20 kt
SIGMETs :     Misc.  Thunderstorms  Icing  Turbulence  Mountain Waves  Volcanic Ashes







- Airport Elevation : 1649 ft
- IATA code : HHN


EDFH - Frankfurt-Hahn Rhineland-Palatinate

CURRENT METAR :
  • 260720Z 26011KT 230V300 9999 BKN016 06/03 Q1017

EXPIRED METARs :
  • 260650Z 26013G24KT 9999 FEW020 SCT040 06/03 Q1017
  • 260620Z 25014KT 9999 FEW015 SCT040 06/03 Q1016
  • 260550Z 25013KT 9999 BKN018 06/02 Q1016
  • 260520Z 26013KT 9999 SCT025 06/02 Q1016
  • 260450Z 26013KT 230V290 9999 BKN015 05/03 Q1016

TAF TAF EDFH
Valid from the 26 at 06:00 until the 27 at 06:00 UTC


260500Z 2606/2706 27015G25KT 9999 SCT020
TEMPO 2606/2609 BKN014
TEMPO 2609/2616 27020G30KT SHRA BKN020TCU
BECMG 2617/2619 25007KT
BECMG 2702/2705 15007KT
No reported NOTAMs for that airfield.



MET'MAP, your aeronautical weather chart ! - Copyright ORBIFLY December 2007 - Disclaimer

ORBIFLY MET'MAP TEAM :

Programming & Development : Alexandra Zaïnal
Concept & Development : Baudouin d'Aumeries
Co-Development & Prog : Marc-Olivier Méhu
Technical & hardware support : Manuel Goepfert

Contact : metmap@orbifly.com




SOURCES & CREDITS :

   NOAA